Time;durP1;ratioP1;P1;durP2;ratioP2;P2;SDS_P1;SDS_P2;PMS_P1;PMS_P2;Temp;Humidity;BMP_temperature;BMP_pressure;BME280_temperature;BME280_humidity;BME280_pressure;Samples;Min_cycle;Max_cycle;Signal;HPM_P1;HPM_P2
2022/05/13 09:48:13;;;;;;;2.53;1.10;;;;;;;;;;5081497;23;20287;-84
2022/05/13 09:50:42;;;;;;;3.38;1.00;;;;;;;;;;5063592;28;20197;-84
2022/05/13 09:53:17;;;;;;;1.73;0.90;;;;;;;;;;5071079;28;20637;-83
2022/05/13 09:55:44;;;;;;;1.60;1.00;;;;;;;;;;5070712;28;20196;-84
2022/05/13 09:58:17;;;;;;;4.10;0.80;;;;;;;;;;5063482;28;20226;-85
2022/05/13 10:00:45;;;;;;;1.80;0.90;;;;;;;;;;5051478;28;20218;-84
2022/05/13 10:03:20;;;;;;;3.38;1.23;;;;;;;;;;5051065;28;20214;-84
2022/05/13 10:05:52;;;;;;;3.45;1.60;;;;;;;;;;5051022;28;20216;-84
2022/05/13 10:08:22;;;;;;;4.75;1.42;;;;;;;;;;5050405;28;20233;-85
2022/05/13 10:14:00;;;;;;;3.17;0.82;;;;;;;;;;5049874;28;20652;-84
2022/05/13 10:16:30;;;;;;;2.67;1.42;;;;;;;;;;5051120;28;20206;-84
2022/05/13 10:19:01;;;;;;;2.88;1.02;;;;;;;;;;5050648;28;20675;-84
2022/05/13 10:21:30;;;;;;;4.43;1.50;;;;;;;;;;5051777;28;20455;-86
2022/05/13 10:24:01;;;;;;;2.63;1.08;;;;;;;;;;5051061;28;20230;-86
2022/05/13 10:26:30;;;;;;;3.15;0.98;;;;;;;;;;5051617;28;20237;-85
2022/05/13 10:29:00;;;;;;;3.08;0.75;;;;;;;;;;5050527;28;20774;-85
2022/05/13 10:31:28;;;;;;;1.35;0.95;;;;;;;;;;5037571;28;20203;-85
2022/05/13 10:33:58;;;;;;;1.40;0.90;;;;;;;;;;5030548;28;20234;-85
2022/05/13 10:36:28;;;;;;;3.15;1.10;;;;;;;;;;5030817;28;20190;-85
2022/05/13 10:39:00;;;;;;;2.55;0.88;;;;;;;;;;5030582;28;20313;-84
2022/05/13 10:41:32;;;;;;;3.28;1.25;;;;;;;;;;5034482;28;20674;-85
2022/05/13 10:44:01;;;;;;;1.80;0.80;;;;;;;;;;5050166;28;20226;-84
2022/05/13 10:46:35;;;;;;;2.63;1.30;;;;;;;;;;5051241;28;20689;-86
2022/05/13 10:49:02;;;;;;;1.88;1.00;;;;;;;;;;5049910;28;20237;-86
2022/05/13 10:51:34;;;;;;;1.77;1.13;;;;;;;;;;5063940;28;20202;-85
2022/05/13 10:54:12;;;;;;;2.20;1.23;;;;;;;;;;5051934;28;20304;-85
2022/05/13 10:56:42;;;;;;;2.55;0.90;;;;;;;;;;5052690;28;20194;-84
2022/05/13 10:59:16;;;;;;;1.85;1.35;;;;;;;;;;5051828;28;20678;-87
2022/05/13 11:01:50;;;;;;;1.38;0.82;;;;;;;;;;5052165;28;20197;-86
2022/05/13 11:04:24;;;;;;;3.58;1.27;;;;;;;;;;5051421;28;20233;-84
2022/05/13 11:07:02;;;;;;;3.28;0.80;;;;;;;;;;5052219;28;20212;-86
2022/05/13 11:09:35;;;;;;;0.43;0.40;;;;;;;;;;5051991;28;20240;-85
2022/05/13 11:12:05;;;;;;;2.50;1.10;;;;;;;;;;5051895;28;20209;-85
2022/05/13 11:14:37;;;;;;;3.30;1.20;;;;;;;;;;5051058;28;20237;-86
2022/05/13 11:17:09;;;;;;;3.00;1.40;;;;;;;;;;5051954;28;20203;-85
2022/05/13 11:19:38;;;;;;;3.85;1.20;;;;;;;;;;5051152;28;20230;-86
2022/05/13 11:22:12;;;;;;;1.95;0.90;;;;;;;;;;5052136;28;20279;-86
2022/05/13 11:27:39;;;;;;;1.67;0.85;;;;;;;;;;5053680;28;20205;-87
2022/05/13 11:30:09;;;;;;;1.50;0.80;;;;;;;;;;5052217;28;20230;-88
2022/05/13 11:32:42;;;;;;;3.92;1.13;;;;;;;;;;5053403;28;20202;-86
2022/05/13 11:35:23;;;;;;;3.78;1.05;;;;;;;;;;5052186;28;20237;-88
2022/05/13 11:37:54;;;;;;;2.97;1.00;;;;;;;;;;5053105;28;20238;-87
2022/05/13 11:40:27;;;;;;;1.80;0.90;;;;;;;;;;5052203;28;20317;-88
2022/05/13 11:45:52;;;;;;;1.90;0.90;;;;;;;;;;5056059;28;20213;-87
2022/05/13 11:48:23;;;;;;;1.60;0.80;;;;;;;;;;5055794;28;20268;-87
2022/05/13 11:50:50;;;;;;;2.03;1.15;;;;;;;;;;5056343;28;20194;-86
2022/05/13 11:53:35;;;;;;;1.13;0.90;;;;;;;;;;5055266;28;20205;-87
2022/05/13 11:56:13;;;;;;;6.00;1.30;;;;;;;;;;5056050;28;20205;-87
2022/05/13 11:58:52;;;;;;;3.45;0.95;;;;;;;;;;5055211;28;20242;-87
2022/05/13 12:01:37;;;;;;;5.43;1.85;;;;;;;;;;5055481;28;20221;-87
2022/05/13 12:04:23;;;;;;;2.70;1.40;;;;;;;;;;5055410;28;20312;-88
2022/05/13 12:06:57;;;;;;;1.63;0.80;;;;;;;;;;5055698;28;20216;-86
2022/05/13 12:09:25;;;;;;;2.08;1.17;;;;;;;;;;5055076;28;20242;-87
2022/05/13 12:11:55;;;;;;;1.00;0.50;;;;;;;;;;5055449;28;20685;-87
2022/05/13 12:14:27;;;;;;;1.95;1.10;;;;;;;;;;5054991;28;20234;-87
2022/05/13 12:17:01;;;;;;;2.25;0.95;;;;;;;;;;5055699;28;20185;-87
2022/05/13 12:19:33;;;;;;;1.20;0.98;;;;;;;;;;5055855;28;20803;-88
2022/05/13 12:22:03;;;;;;;2.88;1.33;;;;;;;;;;5056130;28;20194;-88
2022/05/13 12:24:31;;;;;;;4.28;0.90;;;;;;;;;;5055405;28;20237;-88
2022/05/13 12:27:13;;;;;;;3.17;1.38;;;;;;;;;;5055259;28;20205;-89
2022/05/13 12:30:02;;;;;;;1.75;0.70;;;;;;;;;;5055190;28;20694;-88
2022/05/13 12:32:43;;;;;;;0.98;0.88;;;;;;;;;;5056641;28;20214;-86
2022/05/13 12:38:06;;;;;;;1.48;1.08;;;;;;;;;;5055998;28;20297;-87
2022/05/13 12:40:35;;;;;;;1.38;0.77;;;;;;;;;;5058758;28;20225;-88
2022/05/13 12:43:14;;;;;;;0.98;0.82;;;;;;;;;;5055944;28;20217;-87
2022/05/13 12:45:59;;;;;;;1.77;1.00;;;;;;;;;;5056076;28;20190;-88
2022/05/13 12:48:26;;;;;;;1.65;0.85;;;;;;;;;;5078912;28;20221;-88
2022/05/13 12:50:54;;;;;;;3.85;1.30;;;;;;;;;;5079462;28;20187;-88
2022/05/13 12:53:32;;;;;;;1.42;0.93;;;;;;;;;;5064601;28;20209;-88
2022/05/13 12:56:00;;;;;;;3.45;1.08;;;;;;;;;;5061666;28;20212;-88
2022/05/13 12:58:30;;;;;;;1.85;0.90;;;;;;;;;;5061798;28;20237;-87
2022/05/13 13:00:57;;;;;;;1.88;0.93;;;;;;;;;;5062552;28;20230;-86
2022/05/13 13:03:25;;;;;;;1.40;0.80;;;;;;;;;;5062393;28;20710;-88
2022/05/13 13:05:59;;;;;;;1.38;0.98;;;;;;;;;;5061487;28;20678;-88
2022/05/13 13:08:33;;;;;;;2.38;1.08;;;;;;;;;;5062165;28;20233;-87
2022/05/13 13:11:03;;;;;;;2.00;0.90;;;;;;;;;;5061998;28;20193;-86
2022/05/13 13:13:33;;;;;;;2.20;0.93;;;;;;;;;;5060830;28;20260;-87
2022/05/13 13:16:01;;;;;;;1.23;0.80;;;;;;;;;;5060069;28;20218;-87
2022/05/13 13:18:32;;;;;;;2.05;1.10;;;;;;;;;;5059400;28;20241;-86
2022/05/13 13:21:00;;;;;;;2.15;1.02;;;;;;;;;;5058485;28;20244;-85
2022/05/13 13:23:30;;;;;;;2.40;0.80;;;;;;;;;;5053505;28;20241;-86
2022/05/13 13:25:58;;;;;;;1.25;0.90;;;;;;;;;;5053112;28;20688;-86
2022/05/13 13:28:26;;;;;;;2.58;1.05;;;;;;;;;;5054004;28;20241;-86
2022/05/13 13:30:56;;;;;;;1.77;0.90;;;;;;;;;;5054358;28;20198;-86
2022/05/13 13:33:26;;;;;;;6.75;1.17;;;;;;;;;;5052977;28;20590;-86
2022/05/13 13:35:53;;;;;;;0.93;0.75;;;;;;;;;;5053188;28;20317;-86
2022/05/13 13:38:21;;;;;;;2.55;1.08;;;;;;;;;;5052312;28;20288;-86
2022/05/13 13:40:49;;;;;;;2.38;0.93;;;;;;;;;;5052780;28;20242;-85
2022/05/13 13:43:18;;;;;;;5.20;1.27;;;;;;;;;;5052434;28;20293;-87
2022/05/13 13:45:46;;;;;;;2.97;1.00;;;;;;;;;;5052847;28;20217;-86
2022/05/13 13:48:18;;;;;;;1.30;1.00;;;;;;;;;;5052392;28;20233;-87
2022/05/13 13:50:47;;;;;;;2.63;1.20;;;;;;;;;;5052869;28;20202;-87
2022/05/13 13:53:18;;;;;;;3.40;1.10;;;;;;;;;;5052081;28;20205;-86
2022/05/13 13:55:45;;;;;;;2.10;0.90;;;;;;;;;;5052600;28;20209;-87
2022/05/13 13:58:18;;;;;;;3.00;1.27;;;;;;;;;;5052262;28;20229;-86
2022/05/13 14:00:46;;;;;;;2.40;1.20;;;;;;;;;;5042916;28;20636;-86
2022/05/13 14:03:17;;;;;;;2.38;0.95;;;;;;;;;;5031783;28;20203;-86
2022/05/13 14:05:51;;;;;;;1.40;0.95;;;;;;;;;;5032433;28;20214;-85
2022/05/13 14:08:18;;;;;;;2.70;0.88;;;;;;;;;;5031705;28;20726;-85
2022/05/13 14:10:47;;;;;;;1.17;0.90;;;;;;;;;;5032380;28;20203;-85
2022/05/13 14:13:14;;;;;;;3.40;1.10;;;;;;;;;;5031730;28;20201;-87
2022/05/13 14:15:43;;;;;;;3.05;0.98;;;;;;;;;;5032143;28;20202;-85
2022/05/13 14:18:12;;;;;;;4.20;1.10;;;;;;;;;;5031887;28;20236;-86
2022/05/13 14:20:41;;;;;;;2.95;0.90;;;;;;;;;;5032094;28;20721;-84
2022/05/13 14:23:14;;;;;;;1.58;0.95;;;;;;;;;;5031866;28;20205;-86
2022/05/13 14:25:42;;;;;;;2.45;1.25;;;;;;;;;;5032792;28;20211;-82
2022/05/13 14:28:12;;;;;;;4.00;1.38;;;;;;;;;;5033092;28;20242;-82
2022/05/13 14:30:39;;;;;;;2.58;0.90;;;;;;;;;;5033917;28;20198;-82
2022/05/13 14:33:06;;;;;;;1.50;0.73;;;;;;;;;;5033042;28;20689;-82
2022/05/13 14:35:35;;;;;;;1.60;0.90;;;;;;;;;;5033366;28;20213;-81
2022/05/13 14:38:05;;;;;;;1.15;0.68;;;;;;;;;;5044106;28;20223;-82
2022/05/13 14:40:34;;;;;;;1.45;0.80;;;;;;;;;;5052690;28;20265;-81
2022/05/13 14:43:03;;;;;;;0.93;0.80;;;;;;;;;;5045104;28;20220;-82
2022/05/13 14:45:35;;;;;;;2.83;1.00;;;;;;;;;;5052741;28;20697;-83
2022/05/13 14:48:21;;;;;;;1.33;0.80;;;;;;;;;;5054470;28;20905;-82
2022/05/13 14:50:55;;;;;;;2.08;0.80;;;;;;;;;;5052981;28;20210;-83
2022/05/13 14:53:24;;;;;;;2.47;0.82;;;;;;;;;;5053047;28;20241;-83
2022/05/13 14:55:52;;;;;;;2.17;1.08;;;;;;;;;;5053470;28;20682;-82
2022/05/13 14:58:25;;;;;;;1.15;0.80;;;;;;;;;;5053281;28;20230;-84
2022/05/13 15:00:52;;;;;;;1.30;0.90;;;;;;;;;;5053448;28;20651;-83
2022/05/13 15:03:22;;;;;;;1.77;0.70;;;;;;;;;;5052579;28;20210;-83
2022/05/13 15:05:51;;;;;;;1.48;0.90;;;;;;;;;;5053980;28;20210;-82
2022/05/13 15:08:43;;;;;;;1.90;0.80;;;;;;;;;;5056232;28;20316;-83
2022/05/13 15:11:12;;;;;;;1.77;1.00;;;;;;;;;;5036137;28;20217;-83
2022/05/13 15:13:39;;;;;;;2.10;0.82;;;;;;;;;;5052898;28;20230;-83
2022/05/13 15:16:07;;;;;;;4.38;1.10;;;;;;;;;;5054713;28;20220;-81
2022/05/13 15:18:36;;;;;;;2.58;1.02;;;;;;;;;;5056791;28;20268;-83
2022/05/13 15:21:04;;;;;;;2.38;1.00;;;;;;;;;;5057570;28;20284;-82
2022/05/13 15:23:31;;;;;;;3.40;1.08;;;;;;;;;;5057028;28;20279;-82
2022/05/13 15:25:59;;;;;;;2.53;1.13;;;;;;;;;;5057738;28;20213;-83
2022/05/13 15:28:27;;;;;;;1.23;0.80;;;;;;;;;;5056383;28;20245;-83
2022/05/13 15:30:55;;;;;;;5.00;0.73;;;;;;;;;;5056440;28;20213;-83
2022/05/13 15:33:23;;;;;;;1.13;0.57;;;;;;;;;;5056283;28;20248;-82
2022/05/13 15:35:50;;;;;;;1.48;0.75;;;;;;;;;;5057524;28;20201;-82
2022/05/13 15:38:17;;;;;;;1.13;0.73;;;;;;;;;;5057460;28;20233;-82
2022/05/13 15:40:45;;;;;;;3.70;0.70;;;;;;;;;;5058162;28;20585;-82
2022/05/13 15:43:12;;;;;;;2.83;1.13;;;;;;;;;;5058682;28;20651;-82
2022/05/13 15:45:42;;;;;;;0.75;0.75;;;;;;;;;;5066216;28;20206;-83
2022/05/13 15:48:11;;;;;;;2.40;1.02;;;;;;;;;;5080626;23;20225;-82
2022/05/13 15:53:23;;;;;;;1.42;0.80;;;;;;;;;;5040142;28;20268;-83
2022/05/13 15:55:52;;;;;;;2.42;1.05;;;;;;;;;;5037075;28;20674;-82
2022/05/13 15:58:24;;;;;;;2.25;1.00;;;;;;;;;;5037097;28;20284;-82
2022/05/13 16:00:53;;;;;;;1.95;0.98;;;;;;;;;;5054167;28;20209;-83
2022/05/13 16:03:20;;;;;;;0.93;0.75;;;;;;;;;;5045440;28;20207;-82
2022/05/13 16:05:48;;;;;;;1.17;0.82;;;;;;;;;;5052698;28;20237;-81
2022/05/13 16:08:15;;;;;;;1.65;0.57;;;;;;;;;;5056211;28;20221;-82
2022/05/13 16:10:43;;;;;;;2.53;1.00;;;;;;;;;;5054926;28;20206;-82
2022/05/13 16:13:13;;;;;;;1.25;0.70;;;;;;;;;;5054905;28;20209;-83
2022/05/13 16:15:43;;;;;;;1.20;0.73;;;;;;;;;;5055347;28;20217;-82
2022/05/13 16:18:14;;;;;;;1.95;1.48;;;;;;;;;;5054636;28;20237;-82
2022/05/13 16:20:41;;;;;;;2.88;0.70;;;;;;;;;;5069377;28;20687;-82
2022/05/13 16:23:08;;;;;;;0.70;0.70;;;;;;;;;;5075502;28;20205;-84
2022/05/13 16:25:35;;;;;;;1.40;1.25;;;;;;;;;;5076266;28;20693;-82
2022/05/13 16:28:05;;;;;;;2.05;1.15;;;;;;;;;;5076083;28;20728;-83
2022/05/13 16:30:33;;;;;;;2.38;0.90;;;;;;;;;;5076890;28;20205;-81
2022/05/13 16:33:00;;;;;;;1.30;0.95;;;;;;;;;;5077330;28;20216;-80
2022/05/13 16:35:30;;;;;;;1.58;0.90;;;;;;;;;;5077459;28;20232;-82
2022/05/13 16:37:57;;;;;;;8.73;2.00;;;;;;;;;;5076672;28;20229;-82
2022/05/13 16:40:26;;;;;;;1.15;0.82;;;;;;;;;;5078341;28;20228;-81
2022/05/13 16:42:53;;;;;;;1.80;0.80;;;;;;;;;;5079760;28;20220;-81
2022/05/13 16:45:22;;;;;;;1.33;0.90;;;;;;;;;;5077391;28;20233;-83
2022/05/13 16:47:50;;;;;;;2.28;0.90;;;;;;;;;;5074384;28;20232;-83
2022/05/13 16:50:18;;;;;;;2.40;0.80;;;;;;;;;;5074496;28;20252;-82
2022/05/13 16:52:46;;;;;;;1.40;0.70;;;;;;;;;;5064366;28;20209;-83
2022/05/13 16:55:16;;;;;;;0.95;0.80;;;;;;;;;;5054243;28;20729;-83
2022/05/13 16:57:50;;;;;;;3.42;0.80;;;;;;;;;;5056582;28;20582;-82
2022/05/13 17:00:22;;;;;;;1.45;1.08;;;;;;;;;;5065869;28;20224;-85
2022/05/13 17:02:54;;;;;;;2.60;2.40;;;;;;;;;;5076777;28;20236;-86
2022/05/13 17:05:23;;;;;;;1.67;0.93;;;;;;;;;;5065416;28;20236;-83
2022/05/13 17:07:52;;;;;;;3.92;0.82;;;;;;;;;;5056335;28;20294;-84
2022/05/13 17:21:24;;;;;;;1.70;0.90;;;;;;;;;;5054370;28;20328;-86
2022/05/13 17:23:53;;;;;;;2.08;0.90;;;;;;;;;;5054336;28;20236;-84
2022/05/13 17:26:20;;;;;;;1.10;0.80;;;;;;;;;;5055034;28;20249;-83
2022/05/13 17:28:48;;;;;;;4.80;1.30;;;;;;;;;;5053385;28;20245;-83
2022/05/13 17:31:16;;;;;;;1.05;0.73;;;;;;;;;;5050995;28;20198;-85
2022/05/13 17:33:45;;;;;;;2.47;0.95;;;;;;;;;;5052251;28;20229;-83
2022/05/13 17:36:12;;;;;;;3.10;0.80;;;;;;;;;;5038325;28;20289;-83
2022/05/13 17:38:40;;;;;;;1.75;0.82;;;;;;;;;;5048604;28;20736;-82
2022/05/13 17:41:09;;;;;;;1.98;0.70;;;;;;;;;;5053677;28;20201;-84
2022/05/13 17:43:37;;;;;;;4.38;2.30;;;;;;;;;;5043440;28;20240;-84
2022/05/13 17:46:04;;;;;;;2.83;1.63;;;;;;;;;;5032282;28;20195;-84
2022/05/13 17:48:31;;;;;;;1.33;1.02;;;;;;;;;;5033299;28;20245;-84
2022/05/13 17:51:03;;;;;;;1.98;0.98;;;;;;;;;;5041504;28;20220;-84
2022/05/13 17:53:30;;;;;;;3.95;1.17;;;;;;;;;;5049937;28;20233;-84
2022/05/13 17:55:57;;;;;;;1.42;0.60;;;;;;;;;;5058389;28;20209;-83
2022/05/13 17:58:26;;;;;;;1.35;1.08;;;;;;;;;;5069500;28;20269;-84
2022/05/13 18:00:54;;;;;;;1.30;0.80;;;;;;;;;;5054843;28;20210;-84
2022/05/13 18:03:21;;;;;;;2.00;1.05;;;;;;;;;;5052675;28;20253;-84
2022/05/13 18:05:48;;;;;;;1.92;0.80;;;;;;;;;;5052167;28;20626;-84
2022/05/13 18:08:15;;;;;;;3.10;1.23;;;;;;;;;;5041706;28;20605;-84
2022/05/13 18:10:43;;;;;;;1.35;0.90;;;;;;;;;;5047502;28;20206;-85
2022/05/13 18:13:10;;;;;;;0.95;0.90;;;;;;;;;;5052620;28;20678;-86
2022/05/13 18:15:39;;;;;;;1.65;1.00;;;;;;;;;;5051580;28;20195;-85
2022/05/13 18:21:00;;;;;;;2.13;0.90;;;;;;;;;;5011583;28;20233;-84
2022/05/13 18:23:28;;;;;;;3.08;1.08;;;;;;;;;;5045769;28;20233;-84
2022/05/13 18:25:56;;;;;;;4.18;0.98;;;;;;;;;;5038722;28;20663;-84
2022/05/13 18:28:23;;;;;;;1.73;0.70;;;;;;;;;;5051139;28;20248;-84
2022/05/13 18:30:53;;;;;;;1.70;1.10;;;;;;;;;;5041107;28;20227;-84
2022/05/13 18:33:21;;;;;;;1.95;0.82;;;;;;;;;;5042095;28;20194;-86
2022/05/13 18:35:48;;;;;;;0.90;0.85;;;;;;;;;;5054119;28;20626;-84
2022/05/13 18:38:16;;;;;;;4.63;1.20;;;;;;;;;;5053218;28;20231;-85
2022/05/13 18:46:21;;;;;;;2.35;1.00;;;;;;;;;;5053024;28;20783;-85
2022/05/13 18:48:48;;;;;;;0.63;0.60;;;;;;;;;;5047145;28;20226;-84
2022/05/13 18:51:17;;;;;;;1.65;0.88;;;;;;;;;;5034646;28;20871;-85
2022/05/13 18:53:44;;;;;;;4.70;1.00;;;;;;;;;;5040592;28;20309;-84
2022/05/13 18:56:12;;;;;;;4.13;1.10;;;;;;;;;;5037066;28;20564;-85
2022/05/13 18:58:39;;;;;;;1.02;0.90;;;;;;;;;;5036129;28;20238;-84
2022/05/13 19:01:06;;;;;;;1.55;1.00;;;;;;;;;;5037049;28;20206;-85
2022/05/13 19:03:35;;;;;;;3.88;1.63;;;;;;;;;;5036459;28;20234;-84
2022/05/13 19:06:03;;;;;;;1.30;0.95;;;;;;;;;;5035027;28;20203;-84
2022/05/13 19:08:30;;;;;;;1.95;0.90;;;;;;;;;;5035857;28;20261;-85
2022/05/13 19:10:58;;;;;;;1.65;0.98;;;;;;;;;;5036200;28;20697;-83
2022/05/13 19:13:25;;;;;;;4.43;1.38;;;;;;;;;;5035224;28;20717;-83
2022/05/13 19:15:53;;;;;;;4.03;1.30;;;;;;;;;;5048996;28;20205;-84
2022/05/13 19:18:23;;;;;;;2.38;1.40;;;;;;;;;;5055635;28;20237;-84
2022/05/13 19:20:52;;;;;;;1.10;0.80;;;;;;;;;;5052996;28;20209;-84
2022/05/13 19:23:19;;;;;;;1.02;0.93;;;;;;;;;;5054791;28;20245;-83
2022/05/13 19:25:48;;;;;;;2.00;1.65;;;;;;;;;;5044381;28;20238;-84
2022/05/13 19:28:15;;;;;;;6.80;1.50;;;;;;;;;;5035328;28;20265;-83
2022/05/13 19:30:44;;;;;;;3.95;1.55;;;;;;;;;;5035647;28;20293;-85
2022/05/13 19:33:11;;;;;;;3.88;1.33;;;;;;;;;;5034664;28;20214;-83
2022/05/13 19:51:06;;;;;;;4.75;1.70;;;;;;;;;;4959042;29;20253;-87
2022/05/13 19:57:00;;;;;;;2.58;2.10;;;;;;;;;;4949619;29;20209;-87
2022/05/13 19:59:29;;;;;;;4.03;3.40;;;;;;;;;;4922729;29;20295;-87
2022/05/13 20:01:56;;;;;;;8.93;3.08;;;;;;;;;;4918224;29;20242;-88
2022/05/13 20:04:23;;;;;;;3.53;2.17;;;;;;;;;;4931201;29;20276;-88
2022/05/13 20:12:22;;;;;;;3.95;1.70;;;;;;;;;;4999247;28;20226;-86
2022/05/13 20:14:51;;;;;;;2.40;1.40;;;;;;;;;;5032705;28;20242;-87
2022/05/13 20:17:18;;;;;;;1.60;1.50;;;;;;;;;;5034194;28;20191;-87
2022/05/13 20:25:31;;;;;;;5.25;1.35;;;;;;;;;;4992036;28;20294;-87
2022/05/13 20:27:58;;;;;;;3.08;1.40;;;;;;;;;;4993125;28;20215;-86
2022/05/13 20:30:27;;;;;;;1.60;1.42;;;;;;;;;;5010981;28;20722;-86
2022/05/13 20:32:55;;;;;;;4.38;1.80;;;;;;;;;;5034859;28;20293;-85
2022/05/13 20:35:23;;;;;;;3.40;1.67;;;;;;;;;;5033989;28;20246;-85
2022/05/13 20:37:51;;;;;;;2.78;1.48;;;;;;;;;;5035344;28;20206;-88
2022/05/13 20:40:19;;;;;;;2.33;1.60;;;;;;;;;;5035651;28;20233;-89
2022/05/13 20:42:47;;;;;;;3.03;1.80;;;;;;;;;;5036422;28;20211;-87
2022/05/13 20:45:14;;;;;;;3.28;1.80;;;;;;;;;;5034979;28;20293;-87
2022/05/13 20:47:43;;;;;;;1.52;1.30;;;;;;;;;;5035409;28;20277;-87
2022/05/13 20:50:11;;;;;;;4.72;1.50;;;;;;;;;;5033971;28;20238;-88
2022/05/13 20:52:38;;;;;;;2.15;1.80;;;;;;;;;;5036671;28;20214;-88
2022/05/13 20:55:06;;;;;;;5.55;1.75;;;;;;;;;;5053376;28;20237;-86
2022/05/13 20:57:33;;;;;;;2.22;1.70;;;;;;;;;;5055044;28;20212;-87
2022/05/13 21:00:00;;;;;;;1.55;1.45;;;;;;;;;;5053582;28;20246;-86
2022/05/13 21:02:27;;;;;;;6.20;1.63;;;;;;;;;;5056507;28;20226;-86
2022/05/13 21:04:57;;;;;;;5.37;2.07;;;;;;;;;;5056584;28;20241;-86
2022/05/13 21:07:25;;;;;;;4.93;1.60;;;;;;;;;;5057525;28;20245;-85
2022/05/13 21:09:52;;;;;;;2.33;1.70;;;;;;;;;;5055733;28;20246;-85
2022/05/13 21:12:20;;;;;;;2.00;1.67;;;;;;;;;;5056325;28;20209;-86
2022/05/13 21:14:47;;;;;;;3.13;1.67;;;;;;;;;;5055089;28;20240;-85
2022/05/13 21:17:15;;;;;;;3.23;1.77;;;;;;;;;;5055991;28;20625;-86
2022/05/13 21:19:42;;;;;;;3.43;1.60;;;;;;;;;;5054751;28;20252;-85
2022/05/13 21:22:11;;;;;;;9.87;1.80;;;;;;;;;;5057874;28;20210;-87
2022/05/13 21:24:38;;;;;;;2.73;1.90;;;;;;;;;;5059306;28;20229;-86
2022/05/13 21:27:07;;;;;;;6.63;2.60;;;;;;;;;;5055170;28;20674;-87
2022/05/13 21:29:34;;;;;;;2.33;1.70;;;;;;;;;;5055382;28;20237;-86
2022/05/13 21:37:33;;;;;;;2.83;1.97;;;;;;;;;;5056639;28;20234;-87
2022/05/13 21:40:00;;;;;;;2.83;1.90;;;;;;;;;;5054867;28;20261;-87
2022/05/13 21:42:27;;;;;;;5.07;2.17;;;;;;;;;;5056283;28;20226;-87
2022/05/13 21:44:54;;;;;;;3.57;2.70;;;;;;;;;;5054574;28;20316;-86
2022/05/13 21:47:22;;;;;;;5.97;2.40;;;;;;;;;;5056500;28;20202;-87
2022/05/13 21:49:49;;;;;;;4.50;2.40;;;;;;;;;;5053105;28;20269;-87
2022/05/13 21:52:17;;;;;;;3.40;2.20;;;;;;;;;;5053471;28;20198;-87
2022/05/13 21:54:48;;;;;;;3.37;2.43;;;;;;;;;;5053093;28;20238;-88
2022/05/13 21:57:16;;;;;;;4.83;2.23;;;;;;;;;;5053056;28;20265;-88
2022/05/13 21:59:43;;;;;;;3.10;2.13;;;;;;;;;;5052161;28;20253;-88
2022/05/13 22:02:11;;;;;;;2.30;1.80;;;;;;;;;;5053770;28;20210;-88
2022/05/13 22:04:38;;;;;;;2.70;2.00;;;;;;;;;;5052818;28;20241;-88
2022/05/13 22:07:06;;;;;;;3.50;1.90;;;;;;;;;;5053150;28;20209;-88
2022/05/13 22:09:34;;;;;;;3.30;1.90;;;;;;;;;;5053465;28;20241;-88
2022/05/13 22:12:02;;;;;;;2.53;1.80;;;;;;;;;;5057959;28;20206;-88
2022/05/13 22:14:29;;;;;;;3.07;1.83;;;;;;;;;;5056153;28;20230;-87
2022/05/13 22:16:57;;;;;;;4.00;1.90;;;;;;;;;;5053171;28;20275;-88
2022/05/13 22:19:25;;;;;;;3.00;1.80;;;;;;;;;;5052803;28;20238;-88
2022/05/13 22:21:52;;;;;;;2.23;1.90;;;;;;;;;;5052768;28;20213;-88
2022/05/13 22:24:20;;;;;;;5.23;2.37;;;;;;;;;;5051590;28;20238;-87
2022/05/13 22:26:48;;;;;;;4.43;2.23;;;;;;;;;;5051895;28;20194;-88
2022/05/13 22:29:18;;;;;;;4.23;1.87;;;;;;;;;;5051593;28;20249;-87
2022/05/13 22:31:46;;;;;;;2.47;1.67;;;;;;;;;;5052375;28;20192;-88
2022/05/13 22:34:13;;;;;;;2.67;1.90;;;;;;;;;;5051354;28;20236;-88
2022/05/13 22:36:41;;;;;;;6.33;2.17;;;;;;;;;;5052318;28;20675;-88
2022/05/13 22:39:08;;;;;;;2.27;2.03;;;;;;;;;;5051555;28;20242;-87
2022/05/13 22:41:35;;;;;;;2.77;1.97;;;;;;;;;;5052264;28;20205;-88
2022/05/13 22:44:02;;;;;;;5.07;2.10;;;;;;;;;;5051246;28;20245;-87
2022/05/13 22:46:31;;;;;;;2.83;2.10;;;;;;;;;;5052133;28;20601;-87
2022/05/13 22:48:58;;;;;;;4.80;1.77;;;;;;;;;;5051486;28;20238;-87
2022/05/13 22:51:25;;;;;;;3.63;2.20;;;;;;;;;;5052290;28;20206;-87
2022/05/13 22:53:52;;;;;;;4.23;2.13;;;;;;;;;;5051386;28;20251;-87
2022/05/13 22:56:19;;;;;;;3.23;2.33;;;;;;;;;;5051988;28;20268;-87
2022/05/13 22:58:46;;;;;;;3.67;1.97;;;;;;;;;;5051632;28;20305;-87
2022/05/13 23:01:14;;;;;;;3.43;1.90;;;;;;;;;;5052067;28;20210;-88
2022/05/13 23:03:43;;;;;;;1.70;1.60;;;;;;;;;;5051287;28;20237;-88
2022/05/13 23:11:41;;;;;;;2.80;2.10;;;;;;;;;;5052023;28;20186;-88
2022/05/13 23:14:08;;;;;;;2.53;2.00;;;;;;;;;;5051196;28;20256;-87
2022/05/13 23:16:35;;;;;;;4.23;2.30;;;;;;;;;;5051994;28;20213;-88
2022/05/13 23:19:05;;;;;;;2.30;2.10;;;;;;;;;;5051189;28;20245;-87
2022/05/13 23:21:32;;;;;;;2.60;2.23;;;;;;;;;;5051878;28;20619;-88
2022/05/13 23:23:59;;;;;;;2.13;1.93;;;;;;;;;;5050895;28;20245;-88
2022/05/13 23:26:27;;;;;;;4.40;2.07;;;;;;;;;;5052021;28;20210;-88
2022/05/13 23:28:55;;;;;;;2.40;1.90;;;;;;;;;;5051133;28;20265;-88
2022/05/13 23:31:22;;;;;;;1.90;1.80;;;;;;;;;;5051852;28;20198;-88
2022/05/13 23:33:49;;;;;;;4.50;2.00;;;;;;;;;;5051005;28;20229;-87
2022/05/13 23:36:18;;;;;;;2.30;1.80;;;;;;;;;;5051374;28;20210;-88
2022/05/13 23:38:45;;;;;;;1.77;1.67;;;;;;;;;;5054771;28;20244;-88
2022/05/13 23:41:12;;;;;;;1.97;1.73;;;;;;;;;;5055049;28;20202;-88
2022/05/13 23:43:39;;;;;;;2.37;1.83;;;;;;;;;;5054472;28;20240;-88
2022/05/13 23:46:07;;;;;;;3.77;2.10;;;;;;;;;;5054996;28;20745;-88
2022/05/13 23:48:34;;;;;;;3.27;1.80;;;;;;;;;;5054594;28;20241;-87
2022/05/13 23:51:01;;;;;;;3.30;2.20;;;;;;;;;;5055334;28;20700;-88
2022/05/13 23:56:17;;;;;;;4.77;2.00;;;;;;;;;;5055029;28;20233;-88
2022/05/13 23:58:44;;;;;;;2.10;1.90;;;;;;;;;;5054710;28;20245;-88
